createdAt,value
2023-11-30T00:01:06.358Z,1.59
2023-11-30T00:03:36.066Z,1.57
2023-11-30T00:06:03.816Z,1.56
2023-11-30T00:08:31.357Z,1.54
2023-11-30T00:10:59.360Z,1.54
2023-11-30T00:13:27.553Z,1.55
2023-11-30T00:15:55.213Z,1.55
2023-11-30T00:18:22.566Z,1.53
2023-11-30T00:20:50.151Z,1.54
2023-11-30T00:23:17.632Z,1.55
2023-11-30T00:25:45.307Z,1.56
2023-11-30T00:28:12.946Z,1.54
2023-11-30T00:30:41.416Z,1.55
2023-11-30T00:33:09.146Z,1.53
2023-11-30T00:35:36.808Z,1.50
2023-11-30T00:38:04.416Z,1.49
2023-11-30T00:40:32.648Z,1.49
2023-11-30T00:43:00.930Z,1.47
2023-11-30T00:45:28.699Z,1.49
2023-11-30T00:47:56.583Z,1.49
2023-11-30T00:50:24.035Z,1.49
2023-11-30T00:52:51.448Z,1.48
2023-11-30T00:55:19.103Z,1.52
2023-11-30T00:57:47.061Z,1.49
2023-11-30T01:00:15.429Z,1.49
2023-11-30T01:02:43.036Z,1.50
2023-11-30T01:05:10.618Z,1.49
2023-11-30T01:07:38.396Z,1.50
2023-11-30T01:10:07.946Z,1.51
2023-11-30T01:12:35.708Z,1.48
2023-11-30T01:15:04.745Z,1.48
2023-11-30T01:17:32.301Z,1.48
2023-11-30T01:19:59.852Z,1.51
2023-11-30T01:22:27.526Z,1.49
2023-11-30T01:24:55.044Z,1.49
2023-11-30T01:27:24.000Z,1.47
2023-11-30T01:29:51.669Z,1.46
2023-11-30T01:32:19.394Z,1.47
2023-11-30T01:34:48.599Z,1.46
2023-11-30T01:37:21.476Z,1.47
2023-11-30T01:39:54.405Z,1.45
2023-11-30T01:42:31.902Z,1.45
2023-11-30T01:45:06.981Z,1.43
2023-11-30T01:47:46.100Z,1.43
2023-11-30T01:50:24.024Z,1.44
2023-11-30T01:52:55.653Z,1.42
2023-11-30T01:55:28.130Z,1.39
2023-11-30T01:58:05.137Z,1.39
2023-11-30T02:00:40.917Z,1.37
2023-11-30T02:03:09.673Z,1.38
2023-11-30T02:05:38.456Z,1.39
2023-11-30T02:08:06.250Z,1.40
2023-11-30T02:10:33.769Z,1.41
2023-11-30T02:13:01.393Z,1.41
2023-11-30T02:15:29.542Z,1.39
2023-11-30T02:17:57.069Z,1.40
2023-11-30T02:20:24.604Z,1.36
2023-11-30T02:22:52.304Z,1.32
2023-11-30T02:25:19.755Z,1.26
2023-11-30T02:27:47.569Z,1.23
2023-11-30T02:30:16.401Z,1.20
2023-11-30T02:32:43.936Z,1.16
2023-11-30T02:35:11.465Z,1.15
2023-11-30T02:37:38.638Z,1.12
2023-11-30T02:40:08.014Z,1.08
2023-11-30T02:42:36.089Z,1.05
2023-11-30T02:45:04.408Z,1.03
2023-11-30T02:47:31.799Z,1.06
2023-11-30T02:49:59.263Z,1.09
2023-11-30T02:52:26.881Z,1.13
2023-11-30T02:54:54.162Z,1.14
2023-11-30T02:57:21.773Z,1.15
2023-11-30T02:59:49.383Z,1.16
2023-11-30T03:02:16.736Z,1.18
2023-11-30T03:04:45.720Z,1.19
2023-11-30T03:07:13.192Z,1.18
2023-11-30T03:09:40.852Z,1.17
2023-11-30T03:12:08.618Z,1.16
2023-11-30T03:14:36.306Z,1.15
2023-11-30T03:17:04.049Z,1.15
2023-11-30T03:19:31.587Z,1.15
2023-11-30T03:21:59.287Z,1.14
2023-11-30T03:24:27.915Z,1.11
2023-11-30T03:26:55.374Z,1.07
2023-11-30T03:29:23.047Z,1.04
2023-11-30T03:31:51.235Z,0.99
2023-11-30T03:34:18.575Z,0.96
2023-11-30T03:36:46.223Z,0.95
2023-11-30T03:39:14.014Z,0.93
2023-11-30T03:41:41.302Z,0.90
2023-11-30T03:44:08.897Z,0.89
2023-11-30T03:46:37.040Z,0.88
2023-11-30T03:49:04.573Z,0.86
2023-11-30T03:51:33.496Z,0.83
2023-11-30T03:54:01.419Z,0.79
2023-11-30T03:56:33.756Z,0.77
2023-11-30T03:59:01.093Z,0.76
2023-11-30T04:01:28.862Z,0.74
2023-11-30T04:03:56.261Z,0.67
2023-11-30T04:06:24.467Z,0.62
2023-11-30T04:08:53.413Z,0.58
2023-11-30T04:11:21.300Z,0.57
2023-11-30T04:13:49.409Z,0.55
2023-11-30T04:16:18.331Z,0.57
2023-11-30T04:18:46.028Z,0.55
2023-11-30T04:21:14.614Z,0.52
2023-11-30T04:23:42.416Z,0.48
2023-11-30T04:26:10.607Z,0.45
2023-11-30T04:28:38.334Z,0.44
2023-11-30T04:31:06.456Z,0.43
2023-11-30T04:33:34.835Z,0.42
2023-11-30T04:36:03.444Z,0.43
2023-11-30T04:38:31.280Z,0.43
2023-11-30T04:40:59.955Z,0.41
2023-11-30T04:43:27.405Z,0.40
2023-11-30T04:45:54.862Z,0.39
2023-11-30T04:48:22.279Z,0.38
2023-11-30T04:50:50.023Z,0.36
2023-11-30T04:53:17.936Z,0.33
2023-11-30T04:55:46.500Z,0.31
2023-11-30T04:58:14.716Z,0.33
2023-11-30T05:00:42.613Z,0.29
2023-11-30T05:03:10.106Z,0.28
2023-11-30T05:05:37.922Z,0.28
2023-11-30T05:08:05.357Z,0.27
2023-11-30T05:10:32.804Z,0.24
2023-11-30T05:13:00.199Z,0.21
2023-11-30T05:15:27.882Z,0.20
2023-11-30T05:17:55.187Z,0.21
2023-11-30T05:20:22.682Z,0.21
2023-11-30T05:22:51.029Z,0.20
2023-11-30T05:25:18.847Z,0.21
2023-11-30T05:27:46.321Z,0.22
2023-11-30T05:30:14.360Z,0.23
2023-11-30T05:32:42.168Z,0.23
2023-11-30T05:35:09.775Z,0.20
2023-11-30T05:37:37.391Z,0.19
2023-11-30T05:40:08.238Z,0.17
2023-11-30T05:42:36.154Z,0.17
2023-11-30T05:45:05.783Z,0.15
2023-11-30T05:47:33.236Z,0.14
2023-11-30T05:50:00.835Z,0.11
2023-11-30T05:52:28.292Z,0.08
2023-11-30T05:54:57.711Z,0.06
2023-11-30T05:57:24.917Z,0.05
2023-11-30T05:59:52.932Z,0.06
2023-11-30T06:02:22.333Z,0.07
2023-11-30T06:04:52.136Z,0.08
2023-11-30T06:07:20.878Z,0.09
2023-11-30T06:09:48.442Z,0.14
2023-11-30T06:12:16.240Z,0.14
2023-11-30T06:14:44.285Z,0.16
2023-11-30T06:17:12.835Z,0.18
2023-11-30T06:19:41.294Z,0.20
2023-11-30T06:22:09.149Z,0.20
2023-11-30T06:24:36.952Z,0.22
2023-11-30T06:27:07.694Z,0.26
2023-11-30T06:29:35.205Z,0.28
2023-11-30T06:32:03.688Z,0.27
2023-11-30T06:34:33.076Z,0.32
2023-11-30T06:37:00.792Z,0.34
2023-11-30T06:39:29.423Z,0.38
2023-11-30T06:41:57.121Z,0.42
2023-11-30T06:44:24.687Z,0.48
2023-11-30T06:46:52.067Z,0.52
2023-11-30T06:49:19.356Z,0.55
2023-11-30T06:51:46.711Z,0.57
2023-11-30T06:54:14.361Z,0.61
2023-11-30T06:56:42.150Z,0.64
2023-11-30T06:59:09.711Z,0.66
2023-11-30T07:01:37.501Z,0.68
2023-11-30T07:04:06.210Z,0.72
2023-11-30T07:06:33.749Z,0.74
2023-11-30T07:09:01.217Z,0.78
2023-11-30T07:11:28.797Z,0.81
2023-11-30T07:13:56.248Z,0.81
2023-11-30T07:16:25.714Z,0.86
2023-11-30T07:18:53.355Z,0.90
2023-11-30T07:21:20.875Z,0.93
2023-11-30T07:23:48.255Z,0.96
2023-11-30T07:26:16.190Z,0.96
2023-11-30T07:28:43.506Z,0.97
2023-11-30T07:31:18.941Z,0.98
2023-11-30T07:33:47.923Z,0.99
2023-11-30T07:36:15.871Z,1.03
2023-11-30T07:38:43.367Z,1.05
2023-11-30T07:41:12.163Z,1.05
2023-11-30T07:43:39.627Z,1.08
2023-11-30T07:46:08.290Z,1.12
2023-11-30T07:48:35.801Z,1.16
2023-11-30T07:51:03.493Z,1.21
2023-11-30T07:53:30.990Z,1.30
2023-11-30T07:55:58.609Z,1.34
2023-11-30T07:58:26.376Z,1.40
2023-11-30T08:00:53.886Z,1.43
2023-11-30T08:03:21.251Z,1.49
2023-11-30T08:05:49.596Z,1.55
2023-11-30T08:08:18.199Z,1.62
2023-11-30T08:10:45.853Z,1.65
2023-11-30T08:13:14.152Z,1.73
2023-11-30T08:15:42.010Z,1.78
2023-11-30T08:18:10.945Z,1.83
2023-11-30T08:20:38.483Z,1.90
2023-11-30T08:23:06.000Z,1.98
2023-11-30T08:25:33.735Z,2.06
2023-11-30T08:28:01.461Z,2.14
2023-11-30T08:30:30.006Z,2.24
2023-11-30T08:32:59.399Z,2.30
2023-11-30T08:35:28.114Z,2.37
2023-11-30T08:37:55.939Z,2.43
2023-11-30T08:40:23.772Z,2.45
2023-11-30T08:42:51.271Z,2.49
2023-11-30T08:45:18.799Z,2.55
2023-11-30T08:47:46.268Z,2.60
2023-11-30T08:50:15.227Z,2.66
2023-11-30T08:52:42.614Z,2.73
2023-11-30T08:55:11.887Z,2.83
2023-11-30T08:57:42.014Z,2.91
2023-11-30T09:00:14.330Z,3.02
2023-11-30T09:02:42.594Z,3.12
2023-11-30T09:05:12.745Z,3.21
2023-11-30T09:07:40.143Z,3.32
2023-11-30T09:10:08.664Z,3.37
2023-11-30T09:12:36.296Z,3.44
2023-11-30T09:15:07.445Z,3.47
2023-11-30T09:17:36.245Z,3.55
2023-11-30T09:20:06.759Z,3.59
2023-11-30T09:22:36.382Z,3.62
2023-11-30T09:25:04.739Z,3.63
2023-11-30T09:27:32.909Z,3.63
2023-11-30T09:30:01.874Z,3.63
2023-11-30T09:32:29.314Z,3.64
2023-11-30T09:34:56.964Z,3.68
2023-11-30T09:37:24.587Z,3.66
2023-11-30T09:39:52.246Z,3.65
2023-11-30T09:42:20.173Z,3.66
2023-11-30T09:44:47.818Z,3.69
2023-11-30T09:47:16.535Z,3.70
2023-11-30T09:49:44.220Z,3.71
2023-11-30T09:52:11.576Z,3.73
2023-11-30T09:54:39.550Z,3.76
2023-11-30T09:57:07.075Z,3.78
2023-11-30T09:59:34.679Z,3.75
2023-11-30T10:02:05.496Z,3.70
2023-11-30T10:04:32.289Z,3.66
2023-11-30T10:06:59.848Z,3.62
2023-11-30T10:09:27.857Z,3.59
2023-11-30T10:11:55.804Z,3.62
2023-11-30T10:14:23.352Z,3.69
2023-11-30T10:16:50.846Z,3.76
2023-11-30T10:19:18.684Z,3.79
2023-11-30T10:21:46.363Z,3.81
2023-11-30T10:24:13.943Z,3.78
2023-11-30T10:26:44.054Z,3.79
2023-11-30T10:29:15.393Z,3.80
2023-11-30T10:31:44.305Z,3.85
2023-11-30T10:34:14.701Z,3.90
2023-11-30T10:36:44.468Z,3.92
2023-11-30T10:39:21.568Z,3.94
2023-11-30T10:41:55.558Z,3.99
2023-11-30T10:44:30.241Z,4.02
2023-11-30T10:47:00.437Z,4.02
2023-11-30T10:49:29.976Z,3.98
2023-11-30T10:52:03.507Z,3.98
2023-11-30T10:54:42.259Z,3.98
2023-11-30T10:57:13.717Z,3.90
2023-11-30T10:59:46.460Z,3.86
2023-11-30T11:02:15.024Z,3.84
2023-11-30T11:04:43.748Z,3.85
2023-11-30T11:07:14.101Z,3.84
2023-11-30T11:09:45.264Z,3.84
2023-11-30T11:12:26.710Z,3.84
2023-11-30T11:15:14.167Z,3.82
2023-11-30T11:17:52.563Z,3.78
2023-11-30T11:20:27.213Z,3.76
2023-11-30T11:23:09.174Z,3.80
2023-11-30T11:25:46.750Z,3.84
2023-11-30T11:28:17.380Z,3.87
2023-11-30T11:30:51.388Z,3.89
2023-11-30T11:33:23.097Z,3.92
2023-11-30T11:35:51.286Z,3.94
2023-11-30T11:38:19.687Z,3.96
2023-11-30T11:40:49.110Z,3.98
2023-11-30T11:43:17.071Z,4.00
2023-11-30T11:45:45.228Z,4.01
2023-11-30T11:48:13.508Z,4.00
2023-11-30T11:50:41.550Z,4.00
2023-11-30T11:53:09.366Z,4.00
2023-11-30T11:55:38.863Z,4.00
2023-11-30T11:58:06.638Z,3.99
2023-11-30T12:00:34.397Z,4.00
2023-11-30T12:03:07.320Z,4.00
2023-11-30T12:05:35.190Z,4.00
2023-11-30T12:08:03.756Z,4.03
2023-11-30T12:10:43.840Z,4.05
2023-11-30T12:13:14.654Z,4.09
2023-11-30T12:15:43.057Z,4.13
2023-11-30T12:18:14.062Z,4.15
2023-11-30T12:20:42.664Z,4.19
2023-11-30T12:23:11.968Z,4.23
2023-11-30T12:25:39.948Z,4.29
2023-11-30T12:28:08.092Z,4.32
2023-11-30T12:30:37.004Z,4.35
2023-11-30T12:33:04.852Z,4.40
2023-11-30T12:35:32.620Z,4.48
2023-11-30T12:38:02.609Z,4.55
2023-11-30T12:40:30.645Z,4.60
2023-11-30T12:42:58.498Z,4.63
2023-11-30T12:45:27.896Z,4.61
2023-11-30T12:47:56.420Z,4.61
2023-11-30T12:50:24.234Z,4.60
2023-11-30T12:52:52.460Z,4.61
2023-11-30T12:55:20.462Z,4.63
2023-11-30T12:57:48.699Z,4.64
2023-11-30T13:00:17.784Z,4.66
2023-11-30T13:02:47.659Z,4.64
2023-11-30T13:05:16.663Z,4.62
2023-11-30T13:07:44.587Z,4.58
2023-11-30T13:10:12.674Z,4.54
2023-11-30T13:12:41.550Z,4.46
2023-11-30T13:15:12.562Z,4.44
2023-11-30T13:17:40.904Z,4.41
2023-11-30T13:20:12.488Z,4.39
2023-11-30T13:22:47.376Z,4.38
2023-11-30T13:25:15.581Z,4.39
2023-11-30T13:27:48.418Z,4.39
2023-11-30T13:30:18.131Z,4.39
2023-11-30T13:32:46.697Z,4.37
2023-11-30T13:35:14.601Z,4.33
2023-11-30T13:37:42.772Z,4.31
2023-11-30T13:40:11.903Z,4.30
2023-11-30T13:42:39.821Z,4.29
2023-11-30T13:45:08.468Z,4.27
2023-11-30T13:47:36.304Z,4.22
2023-11-30T13:50:06.131Z,4.22
2023-11-30T13:52:34.120Z,4.21
2023-11-30T13:55:01.932Z,4.20
2023-11-30T13:57:29.702Z,4.19
2023-11-30T13:59:57.962Z,4.17
2023-11-30T14:02:25.875Z,4.16
2023-11-30T14:04:54.106Z,4.13
2023-11-30T14:07:22.332Z,4.11
2023-11-30T14:09:50.098Z,4.09
2023-11-30T14:12:17.889Z,4.07
2023-11-30T14:14:46.303Z,4.08
2023-11-30T14:17:14.246Z,4.08
2023-11-30T14:19:42.175Z,4.08
2023-11-30T14:22:10.104Z,4.07
2023-11-30T14:24:40.730Z,4.04
2023-11-30T14:27:12.529Z,4.04
2023-11-30T14:29:40.357Z,4.03
2023-11-30T14:32:08.566Z,3.98
2023-11-30T14:34:37.549Z,3.95
2023-11-30T14:37:05.504Z,3.92
2023-11-30T14:39:33.517Z,3.86
2023-11-30T14:42:01.489Z,3.84
2023-11-30T14:44:29.853Z,3.80
2023-11-30T14:46:57.782Z,3.77
2023-11-30T14:49:25.583Z,3.76
2023-11-30T14:51:53.422Z,3.75
2023-11-30T14:54:21.361Z,3.75
2023-11-30T14:56:50.685Z,3.75
2023-11-30T14:59:18.645Z,3.73
2023-11-30T15:01:47.225Z,3.75
2023-11-30T15:04:16.357Z,3.74
2023-11-30T15:06:44.588Z,3.76
2023-11-30T15:09:14.387Z,3.73
2023-11-30T15:11:43.934Z,3.69
2023-11-30T15:14:14.256Z,3.67
2023-11-30T15:16:42.524Z,3.68
2023-11-30T15:19:10.694Z,3.65
2023-11-30T15:21:38.555Z,3.61
2023-11-30T15:24:07.549Z,3.56
2023-11-30T15:26:35.368Z,3.54
2023-11-30T15:29:03.176Z,3.55
2023-11-30T15:31:32.307Z,3.56
2023-11-30T15:34:01.981Z,3.54
2023-11-30T15:36:30.027Z,3.55
2023-11-30T15:38:59.676Z,3.55
2023-11-30T15:41:27.698Z,3.54
2023-11-30T15:43:55.525Z,3.50
2023-11-30T15:46:23.341Z,3.48
2023-11-30T15:48:51.181Z,3.46
2023-11-30T15:51:20.109Z,3.44
2023-11-30T15:53:47.808Z,3.42
2023-11-30T15:56:21.762Z,3.41
2023-11-30T15:58:49.693Z,3.40
2023-11-30T16:01:17.681Z,3.42
2023-11-30T16:03:45.858Z,3.44
2023-11-30T16:06:13.964Z,3.45
2023-11-30T16:08:41.839Z,3.47
2023-11-30T16:11:14.509Z,3.47
2023-11-30T16:13:42.977Z,3.49
2023-11-30T16:16:15.029Z,3.51
2023-11-30T16:18:43.128Z,3.49
2023-11-30T16:21:16.621Z,3.48
2023-11-30T16:23:47.943Z,3.47
2023-11-30T16:26:21.255Z,3.47
2023-11-30T16:28:49.502Z,3.45
2023-11-30T16:31:18.030Z,3.43
2023-11-30T16:33:45.940Z,3.41
2023-11-30T16:36:13.725Z,3.42
2023-11-30T16:38:42.290Z,3.38
2023-11-30T16:41:10.165Z,3.35
2023-11-30T16:43:38.080Z,3.32
2023-11-30T16:46:07.139Z,3.32
2023-11-30T16:48:35.847Z,3.34
2023-11-30T16:51:07.787Z,3.35
2023-11-30T16:53:35.672Z,3.38
2023-11-30T16:56:04.495Z,3.40
2023-11-30T16:58:32.300Z,3.42
2023-11-30T17:01:00.268Z,3.44
2023-11-30T17:03:29.213Z,3.44
2023-11-30T17:05:57.623Z,3.42
2023-11-30T17:08:25.481Z,3.43
2023-11-30T17:10:53.338Z,3.43
2023-11-30T17:13:23.448Z,3.45
2023-11-30T17:15:52.936Z,3.45
2023-11-30T17:18:21.089Z,3.46
2023-11-30T17:20:48.930Z,3.47
2023-11-30T17:23:17.097Z,3.47
2023-11-30T17:25:44.983Z,3.50
2023-11-30T17:28:13.194Z,3.50
2023-11-30T17:30:41.147Z,3.50
2023-11-30T17:33:09.025Z,3.48
2023-11-30T17:35:37.222Z,3.48
2023-11-30T17:38:05.044Z,3.51
2023-11-30T17:40:34.327Z,3.48
2023-11-30T17:43:03.737Z,3.48
2023-11-30T17:45:31.510Z,3.48
2023-11-30T17:47:59.468Z,3.46
2023-11-30T17:50:28.008Z,3.47
2023-11-30T17:52:56.501Z,3.46
2023-11-30T17:55:24.586Z,3.45
2023-11-30T17:57:52.406Z,3.42
2023-11-30T18:00:20.614Z,3.44
2023-11-30T18:02:49.651Z,3.43
2023-11-30T18:05:17.549Z,3.44
2023-11-30T18:07:45.396Z,3.44
2023-11-30T18:10:13.150Z,3.41
2023-11-30T18:12:40.874Z,3.39
2023-11-30T18:15:09.815Z,3.38
2023-11-30T18:17:37.637Z,3.35
2023-11-30T18:20:06.432Z,3.31
2023-11-30T18:22:34.406Z,3.31
2023-11-30T18:25:05.989Z,3.30
2023-11-30T18:27:33.980Z,3.31
2023-11-30T18:30:01.866Z,3.32
2023-11-30T18:32:29.780Z,3.32
2023-11-30T18:34:57.579Z,3.32
2023-11-30T18:37:25.529Z,3.34
2023-11-30T18:39:53.372Z,3.32
2023-11-30T18:42:21.828Z,3.31
2023-11-30T18:44:50.078Z,3.31
2023-11-30T18:47:18.056Z,3.32
2023-11-30T18:49:45.766Z,3.36
2023-11-30T18:52:15.592Z,3.35
2023-11-30T18:54:45.724Z,3.36
2023-11-30T18:57:14.330Z,3.37
2023-11-30T18:59:42.108Z,3.35
2023-11-30T19:02:10.293Z,3.30
2023-11-30T19:04:39.763Z,3.29
2023-11-30T19:07:07.619Z,3.29
2023-11-30T19:09:35.385Z,3.28
2023-11-30T19:12:03.453Z,3.25
2023-11-30T19:14:36.327Z,3.21
2023-11-30T19:17:04.386Z,3.20
2023-11-30T19:19:32.362Z,3.21
2023-11-30T19:22:00.315Z,3.24
2023-11-30T19:24:28.391Z,3.27
2023-11-30T19:26:56.675Z,3.29
2023-11-30T19:29:24.589Z,3.33
2023-11-30T19:31:52.440Z,3.37
2023-11-30T19:34:20.857Z,3.39
2023-11-30T19:36:48.705Z,3.46
2023-11-30T19:39:16.430Z,3.50
2023-11-30T19:41:48.528Z,3.54
2023-11-30T19:44:18.277Z,3.58
2023-11-30T19:46:48.804Z,3.61
2023-11-30T19:49:18.499Z,3.61
2023-11-30T19:51:46.923Z,3.59
2023-11-30T19:54:14.749Z,3.57
2023-11-30T19:56:42.559Z,3.56
2023-11-30T19:59:10.694Z,3.52
2023-11-30T20:01:38.530Z,3.51
2023-11-30T20:04:06.440Z,3.46
2023-11-30T20:06:34.437Z,3.42
2023-11-30T20:09:02.243Z,3.38
2023-11-30T20:11:30.572Z,3.37
2023-11-30T20:14:01.419Z,3.34
2023-11-30T20:16:29.411Z,3.32
2023-11-30T20:18:57.327Z,3.31
2023-11-30T20:21:26.978Z,3.28
2023-11-30T20:23:55.264Z,3.25
2023-11-30T20:26:23.695Z,3.23
2023-11-30T20:28:52.512Z,3.20
2023-11-30T20:31:20.786Z,3.18
2023-11-30T20:33:50.486Z,3.18
2023-11-30T20:36:19.261Z,3.17
2023-11-30T20:38:47.967Z,3.19
2023-11-30T20:41:17.368Z,3.18
2023-11-30T20:43:45.294Z,3.18
2023-11-30T20:46:14.057Z,3.18
2023-11-30T20:48:41.834Z,3.20
2023-11-30T20:51:09.796Z,3.21
2023-11-30T20:53:37.778Z,3.26
2023-11-30T20:56:07.109Z,3.31
2023-11-30T20:58:35.472Z,3.39
2023-11-30T21:01:03.392Z,3.47
2023-11-30T21:03:31.745Z,3.57
2023-11-30T21:06:01.294Z,3.67
2023-11-30T21:08:31.346Z,3.75
2023-11-30T21:11:03.151Z,3.81
2023-11-30T21:13:32.622Z,3.86
2023-11-30T21:16:00.578Z,3.95
2023-11-30T21:18:28.769Z,4.01
2023-11-30T21:20:56.772Z,4.03
2023-11-30T21:23:24.630Z,4.05
2023-11-30T21:25:53.457Z,4.07
2023-11-30T21:28:21.271Z,4.05
2023-11-30T21:30:49.302Z,4.03
2023-11-30T21:33:17.304Z,4.00
2023-11-30T21:35:45.175Z,3.95
2023-11-30T21:38:13.067Z,3.93
2023-11-30T21:40:40.891Z,3.90
2023-11-30T21:43:08.585Z,3.85
2023-11-30T21:45:36.526Z,3.83
2023-11-30T21:48:04.795Z,3.78
2023-11-30T21:50:32.704Z,3.73
2023-11-30T21:53:00.563Z,3.71
2023-11-30T21:55:28.378Z,3.69
2023-11-30T21:57:56.399Z,3.67
2023-11-30T22:00:24.400Z,3.66
2023-11-30T22:02:52.359Z,3.64
2023-11-30T22:05:26.965Z,3.64
2023-11-30T22:07:49.739Z,3.60
2023-11-30T22:10:19.080Z,3.57
2023-11-30T22:12:46.988Z,3.56
2023-11-30T22:15:14.858Z,3.53
2023-11-30T22:17:42.652Z,3.55
2023-11-30T22:20:11.972Z,3.57
2023-11-30T22:22:39.918Z,3.61
2023-11-30T22:25:08.930Z,3.67
2023-11-30T22:27:36.786Z,3.72
2023-11-30T22:30:06.152Z,3.79
2023-11-30T22:32:35.040Z,3.88
2023-11-30T22:35:03.091Z,3.96
2023-11-30T22:37:30.794Z,4.05
2023-11-30T22:39:58.654Z,4.15
2023-11-30T22:42:27.726Z,4.23
2023-11-30T22:44:56.247Z,4.30
2023-11-30T22:47:25.074Z,4.32
2023-11-30T22:49:52.815Z,4.32
2023-11-30T22:52:22.087Z,4.31
2023-11-30T22:54:50.042Z,4.29
2023-11-30T22:57:17.927Z,4.27
2023-11-30T22:59:45.687Z,4.25
2023-11-30T23:02:13.764Z,4.19
2023-11-30T23:04:42.127Z,4.17
2023-11-30T23:07:10.145Z,4.13
2023-11-30T23:09:39.677Z,4.07
2023-11-30T23:12:08.661Z,4.04
2023-11-30T23:14:36.341Z,4.00
2023-11-30T23:17:04.260Z,3.97
2023-11-30T23:19:32.488Z,3.94
2023-11-30T23:22:00.648Z,3.91
2023-11-30T23:24:31.867Z,3.90
2023-11-30T23:26:58.916Z,3.89
2023-11-30T23:29:26.801Z,3.86
2023-11-30T23:31:54.697Z,3.85
2023-11-30T23:34:22.469Z,3.83
2023-11-30T23:36:50.441Z,3.84
2023-11-30T23:39:18.425Z,3.85
2023-11-30T23:41:46.439Z,3.88
2023-11-30T23:44:14.251Z,3.94
2023-11-30T23:46:42.206Z,4.00
2023-11-30T23:49:10.206Z,4.06
2023-11-30T23:51:38.109Z,4.11
2023-11-30T23:54:05.992Z,4.18
2023-11-30T23:56:33.796Z,4.23
2023-11-30T23:59:01.581Z,4.34
